createdAt,value
2018-08-25T00:01:07.042Z,17.50
2018-08-25T00:03:37.118Z,17.40
2018-08-25T00:06:07.789Z,17.30
2018-08-25T00:08:39.170Z,17.20
2018-08-25T00:11:11.773Z,17.10
2018-08-25T00:13:57.006Z,17.10
2018-08-25T00:16:28.220Z,17.00
2018-08-25T00:18:58.800Z,17.00
2018-08-25T00:21:29.947Z,16.90
2018-08-25T00:24:00.981Z,16.90
2018-08-25T00:26:32.377Z,17.00
2018-08-25T00:29:04.904Z,17.00
2018-08-25T00:31:34.311Z,17.00
2018-08-25T00:34:04.020Z,17.00
2018-08-25T00:36:33.560Z,16.90
2018-08-25T00:39:12.454Z,16.90
2018-08-25T00:41:41.812Z,16.80
2018-08-25T00:44:11.392Z,16.90
2018-08-25T00:46:40.819Z,16.90
2018-08-25T00:49:10.449Z,16.90
2018-08-25T00:51:39.768Z,16.90
2018-08-25T00:54:09.304Z,16.90
2018-08-25T00:56:39.674Z,16.80
2018-08-25T00:59:14.354Z,16.70
2018-08-25T01:01:43.824Z,16.90
2018-08-25T01:04:13.570Z,16.80
2018-08-25T01:06:43.192Z,16.80
2018-08-25T01:09:17.396Z,16.80
2018-08-25T01:11:48.589Z,16.80
2018-08-25T01:14:19.671Z,16.80
2018-08-25T01:16:54.249Z,16.80
2018-08-25T01:19:29.322Z,16.80
2018-08-25T01:22:03.399Z,16.90
2018-08-25T01:24:33.087Z,16.80
2018-08-25T01:27:23.965Z,16.80
2018-08-25T01:33:13.790Z,16.60
2018-08-25T01:35:43.320Z,16.50
2018-08-25T01:38:13.705Z,16.40
2018-08-25T01:40:43.124Z,16.30
2018-08-25T01:43:15.727Z,16.30
2018-08-25T01:45:53.143Z,16.40
2018-08-25T01:48:23.850Z,16.40
2018-08-25T01:50:53.205Z,16.40
2018-08-25T01:53:22.687Z,16.40
2018-08-25T01:55:52.205Z,16.30
2018-08-25T01:58:21.549Z,16.20
2018-08-25T02:00:51.063Z,16.20
2018-08-25T02:03:20.509Z,16.20
2018-08-25T02:05:49.843Z,16.20
2018-08-25T02:08:19.191Z,16.10
2018-08-25T02:10:48.623Z,16.20
2018-08-25T02:13:18.188Z,16.20
2018-08-25T02:15:47.605Z,16.30
2018-08-25T02:18:17.599Z,16.30
2018-08-25T02:20:46.861Z,16.30
2018-08-25T02:23:16.785Z,16.10
2018-08-25T02:25:46.347Z,16.00
2018-08-25T02:28:15.877Z,16.10
2018-08-25T02:30:45.477Z,16.00
2018-08-25T02:33:15.327Z,15.90
2018-08-25T02:35:44.646Z,15.90
2018-08-25T02:38:14.039Z,15.80
2018-08-25T02:40:43.560Z,15.90
2018-08-25T02:43:16.976Z,15.90
2018-08-25T02:45:53.060Z,15.70
2018-08-25T02:48:23.835Z,15.80
2018-08-25T02:50:53.405Z,16.00
2018-08-25T02:53:28.595Z,15.90
2018-08-25T02:55:58.137Z,16.00
2018-08-25T02:58:27.744Z,15.90
2018-08-25T03:00:57.394Z,15.70
2018-08-25T03:03:41.823Z,15.50
2018-08-25T03:06:11.175Z,15.50
2018-08-25T03:08:40.682Z,15.40
2018-08-25T03:11:11.431Z,15.40
2018-08-25T03:13:41.016Z,15.50
2018-08-25T03:16:10.776Z,15.40
2018-08-25T03:18:40.720Z,15.30
2018-08-25T03:21:10.067Z,15.30
2018-08-25T03:23:39.377Z,15.20
2018-08-25T03:26:08.690Z,15.20
2018-08-25T03:28:43.904Z,15.20
2018-08-25T03:31:13.277Z,15.40
2018-08-25T03:33:42.644Z,15.10
2018-08-25T03:36:12.085Z,15.00
2018-08-25T03:38:41.683Z,14.90
2018-08-25T03:41:11.101Z,14.80
2018-08-25T03:43:40.447Z,14.70
2018-08-25T03:46:09.925Z,14.70
2018-08-25T03:48:42.759Z,14.70
2018-08-25T03:51:12.596Z,14.70
2018-08-25T03:53:42.073Z,14.70
2018-08-25T03:56:14.969Z,14.70
2018-08-25T03:58:44.385Z,14.70
2018-08-25T04:01:13.865Z,14.60
2018-08-25T04:03:43.983Z,14.60
2018-08-25T04:06:13.350Z,14.60
2018-08-25T04:08:43.558Z,14.60
2018-08-25T04:11:13.818Z,14.60
2018-08-25T04:13:43.743Z,14.50
2018-08-25T04:16:13.110Z,14.50
2018-08-25T04:18:43.909Z,14.50
2018-08-25T04:21:13.355Z,14.40
2018-08-25T04:23:43.634Z,14.30
2018-08-25T04:26:13.105Z,14.30
2018-08-25T04:28:42.312Z,14.40
2018-08-25T04:31:11.734Z,14.40
2018-08-25T04:33:41.144Z,14.40
2018-08-25T04:36:10.689Z,14.50
2018-08-25T04:38:45.950Z,14.40
2018-08-25T04:41:15.694Z,14.30
2018-08-25T04:43:45.262Z,14.30
2018-08-25T04:46:14.724Z,14.20
2018-08-25T04:48:44.056Z,14.30
2018-08-25T04:51:13.668Z,14.40
2018-08-25T04:53:43.354Z,14.40
2018-08-25T04:56:12.936Z,14.30
2018-08-25T04:58:44.043Z,14.30
2018-08-25T05:01:14.283Z,14.40
2018-08-25T05:03:44.182Z,14.50
2018-08-25T05:06:14.911Z,14.60
2018-08-25T05:08:46.265Z,14.70
2018-08-25T05:11:15.672Z,14.80
2018-08-25T05:13:45.216Z,14.80
2018-08-25T05:16:14.830Z,14.60
2018-08-25T05:18:44.489Z,14.60
2018-08-25T05:21:15.308Z,14.60
2018-08-25T05:23:44.918Z,14.50
2018-08-25T05:26:15.136Z,14.50
2018-08-25T05:28:44.660Z,14.50
2018-08-25T05:31:14.058Z,14.60
2018-08-25T05:33:45.310Z,14.60
2018-08-25T05:36:14.857Z,14.60
2018-08-25T05:38:44.339Z,14.70
2018-08-25T05:41:14.752Z,14.60
2018-08-25T05:43:45.322Z,14.50
2018-08-25T05:46:15.459Z,14.50
2018-08-25T05:48:44.939Z,14.50
2018-08-25T05:51:14.320Z,14.50
2018-08-25T05:53:43.836Z,14.50
2018-08-25T05:56:14.122Z,14.60
2018-08-25T05:58:43.330Z,14.70
2018-08-25T06:01:12.772Z,14.90
2018-08-25T06:03:42.973Z,15.00
2018-08-25T06:06:12.388Z,15.00
2018-08-25T06:08:42.041Z,15.00
2018-08-25T06:11:11.424Z,14.90
2018-08-25T06:13:40.954Z,14.90
2018-08-25T06:16:10.391Z,15.00
2018-08-25T06:18:39.708Z,15.00
2018-08-25T06:21:10.571Z,15.00
2018-08-25T06:23:40.136Z,15.30
2018-08-25T06:26:14.906Z,15.40
2018-08-25T06:28:44.276Z,15.50
2018-08-25T06:31:13.629Z,15.70
2018-08-25T06:33:43.122Z,16.10
2018-08-25T06:36:14.042Z,16.40
2018-08-25T06:38:43.924Z,16.70
2018-08-25T06:41:13.652Z,17.00
2018-08-25T06:43:42.915Z,17.20
2018-08-25T06:46:12.306Z,17.40
2018-08-25T06:48:41.848Z,17.40
2018-08-25T06:51:14.997Z,17.30
2018-08-25T06:53:44.993Z,17.30
2018-08-25T06:56:14.481Z,17.00
2018-08-25T06:58:43.989Z,17.10
2018-08-25T07:01:13.627Z,17.20
2018-08-25T07:03:42.981Z,17.30
2018-08-25T07:06:27.397Z,17.30
2018-08-25T07:08:58.205Z,17.40
2018-08-25T07:11:29.869Z,17.60
2018-08-25T07:13:59.398Z,17.90
2018-08-25T07:16:28.738Z,17.90
2018-08-25T07:19:00.203Z,17.70
2018-08-25T07:21:29.518Z,17.70
2018-08-25T07:24:01.895Z,17.40
2018-08-25T07:26:31.449Z,17.50
2018-08-25T07:29:00.937Z,17.70
2018-08-25T07:31:30.359Z,17.70
2018-08-25T07:34:02.139Z,17.40
2018-08-25T07:36:31.517Z,17.20
2018-08-25T07:39:00.750Z,17.40
2018-08-25T07:41:30.799Z,17.50
2018-08-25T07:44:03.687Z,17.40
2018-08-25T07:46:36.365Z,17.50
2018-08-25T07:49:05.805Z,17.60
2018-08-25T07:51:40.231Z,17.50
2018-08-25T07:54:09.961Z,17.50
2018-08-25T07:56:42.038Z,17.20
2018-08-25T07:59:11.734Z,17.30
2018-08-25T08:01:41.066Z,17.50
2018-08-25T08:04:10.563Z,17.30
2018-08-25T08:06:40.205Z,17.10
2018-08-25T08:09:10.486Z,17.40
2018-08-25T08:11:41.550Z,17.60
2018-08-25T08:14:11.319Z,17.70
2018-08-25T08:17:06.966Z,17.80
2018-08-25T08:19:52.055Z,17.80
2018-08-25T08:22:22.190Z,17.30
2018-08-25T08:24:52.743Z,17.10
2018-08-25T08:27:22.229Z,17.10
2018-08-25T08:29:51.725Z,17.10
2018-08-25T08:32:21.890Z,17.20
2018-08-25T08:34:52.718Z,17.50
2018-08-25T08:37:22.252Z,17.50
2018-08-25T08:39:52.161Z,17.40
2018-08-25T08:42:22.584Z,17.50
2018-08-25T08:44:52.279Z,17.50
2018-08-25T08:47:22.161Z,17.60
2018-08-25T08:49:58.579Z,17.60
2018-08-25T08:52:28.085Z,17.60
2018-08-25T08:54:57.590Z,17.60
2018-08-25T08:57:27.899Z,17.40
2018-08-25T08:59:57.672Z,17.50
2018-08-25T09:02:36.039Z,17.40
2018-08-25T09:05:25.189Z,17.30
2018-08-25T09:07:57.793Z,17.20
2018-08-25T09:10:27.578Z,17.10
2018-08-25T09:15:46.259Z,17.20
2018-08-25T09:18:36.404Z,17.30
2018-08-25T09:21:12.441Z,17.20
2018-08-25T09:23:41.716Z,17.50
2018-08-25T09:26:11.920Z,17.40
2018-08-25T09:28:41.381Z,17.40
2018-08-25T09:31:11.623Z,17.40
2018-08-25T09:36:17.560Z,17.20
2018-08-25T09:38:52.783Z,17.10
2018-08-25T09:41:22.598Z,17.20
2018-08-25T09:43:52.988Z,17.10
2018-08-25T09:46:22.345Z,17.10
2018-08-25T09:48:51.769Z,17.10
2018-08-25T09:51:21.348Z,17.00
2018-08-25T09:53:51.694Z,16.90
2018-08-25T09:56:21.338Z,16.80
2018-08-25T09:58:51.867Z,16.80
2018-08-25T10:01:33.503Z,16.80
2018-08-25T10:04:03.570Z,16.60
2018-08-25T10:06:33.087Z,16.60
2018-08-25T10:09:02.730Z,16.50
2018-08-25T10:11:32.256Z,16.30
2018-08-25T10:14:01.957Z,16.40
2018-08-25T10:16:31.435Z,16.30
2018-08-25T10:19:02.082Z,16.30
2018-08-25T10:21:31.440Z,16.30
2018-08-25T10:24:02.048Z,16.20
2018-08-25T10:26:31.945Z,16.20
2018-08-25T10:29:02.108Z,16.30
2018-08-25T10:31:33.402Z,16.30
2018-08-25T10:34:03.145Z,16.20
2018-08-25T10:36:32.558Z,16.30
2018-08-25T10:39:17.029Z,16.40
2018-08-25T10:41:49.040Z,16.60
2018-08-25T10:44:18.396Z,16.70
2018-08-25T10:46:47.783Z,16.70
2018-08-25T10:49:17.328Z,16.60
2018-08-25T10:51:58.388Z,16.60
2018-08-25T10:54:27.731Z,16.60
2018-08-25T10:56:57.314Z,16.60
2018-08-25T10:59:30.571Z,16.70
2018-08-25T11:02:08.575Z,16.60
2018-08-25T11:04:46.458Z,16.60
2018-08-25T11:07:15.936Z,16.50
2018-08-25T11:09:47.118Z,16.50
2018-08-25T11:12:24.593Z,16.60
2018-08-25T11:14:54.263Z,16.70
2018-08-25T11:17:28.131Z,16.60
2018-08-25T11:19:59.093Z,16.50
2018-08-25T11:22:31.077Z,16.50
2018-08-25T11:25:07.813Z,16.50
2018-08-25T11:27:40.309Z,16.50
2018-08-25T11:30:18.263Z,16.50
2018-08-25T11:33:02.024Z,16.50
2018-08-25T11:41:04.691Z,16.50
2018-08-25T11:43:34.565Z,16.40
2018-08-25T11:46:04.663Z,16.10
2018-08-25T11:48:37.828Z,16.10
2018-08-25T11:51:07.333Z,16.00
2018-08-25T11:53:36.744Z,15.90
2018-08-25T11:56:06.291Z,15.90
2018-08-25T11:58:41.903Z,16.00
2018-08-25T12:01:14.813Z,16.00
2018-08-25T12:03:46.062Z,16.10
2018-08-25T12:06:27.006Z,16.10
2018-08-25T12:08:58.746Z,16.20
2018-08-25T12:11:37.412Z,16.20
2018-08-25T12:14:17.675Z,16.20
2018-08-25T12:16:51.755Z,16.10
2018-08-25T12:19:24.472Z,16.10
2018-08-25T12:21:54.970Z,16.10
2018-08-25T12:24:28.422Z,16.20
2018-08-25T12:27:01.145Z,16.10
2018-08-25T12:29:32.222Z,15.90
2018-08-25T12:32:06.900Z,15.80
2018-08-25T12:34:37.277Z,15.80
2018-08-25T12:37:07.571Z,15.60
2018-08-25T12:39:39.045Z,15.50
2018-08-25T12:42:12.308Z,15.40
2018-08-25T12:44:46.276Z,15.30
2018-08-25T12:47:15.874Z,15.20
2018-08-25T12:49:45.461Z,15.30
2018-08-25T12:52:14.753Z,15.20
2018-08-25T12:54:46.836Z,15.20
2018-08-25T12:57:19.128Z,15.20
2018-08-25T12:59:48.702Z,15.30
2018-08-25T13:02:18.321Z,15.20
2018-08-25T13:04:47.763Z,15.10
2018-08-25T13:07:17.426Z,15.10
2018-08-25T13:09:47.520Z,15.10
2018-08-25T13:12:19.273Z,15.30
2018-08-25T13:14:51.366Z,15.40
2018-08-25T13:17:25.211Z,15.40
2018-08-25T13:20:12.929Z,15.40
2018-08-25T13:22:43.274Z,15.30
2018-08-25T13:25:12.837Z,15.30
2018-08-25T13:27:42.312Z,15.40
2018-08-25T13:30:13.162Z,15.40
2018-08-25T13:32:55.439Z,15.30
2018-08-25T13:35:24.568Z,15.20
2018-08-25T13:37:55.090Z,15.10
2018-08-25T13:40:24.115Z,15.10
2018-08-25T13:42:54.530Z,15.00
2018-08-25T13:45:25.625Z,15.00
2018-08-25T13:47:55.229Z,15.00
2018-08-25T13:50:25.072Z,14.90
2018-08-25T13:53:01.163Z,14.90
2018-08-25T13:55:34.568Z,15.00
2018-08-25T13:58:12.289Z,15.10
2018-08-25T14:00:42.081Z,15.30
2018-08-25T14:03:14.177Z,15.40
2018-08-25T14:05:44.501Z,15.40
2018-08-25T14:08:15.562Z,15.30
2018-08-25T14:10:46.341Z,15.10
2018-08-25T14:13:17.412Z,15.10
2018-08-25T14:15:46.850Z,15.30
2018-08-25T14:18:16.465Z,15.40
2018-08-25T14:20:46.142Z,15.40
2018-08-25T14:23:15.761Z,15.10
2018-08-25T14:26:11.492Z,14.90
2018-08-25T14:28:47.994Z,15.00
2018-08-25T14:31:19.783Z,15.10
2018-08-25T14:33:58.177Z,15.00
2018-08-25T14:36:33.096Z,15.00
2018-08-25T14:39:08.458Z,15.50
2018-08-25T14:41:39.099Z,15.40
2018-08-25T14:44:15.680Z,15.40
2018-08-25T14:46:47.605Z,15.40
2018-08-25T14:49:16.972Z,15.20
2018-08-25T14:51:47.923Z,15.30
2018-08-25T14:54:19.483Z,15.40
2018-08-25T14:56:49.360Z,15.50
2018-08-25T14:59:19.612Z,15.70
2018-08-25T15:01:49.618Z,15.70
2018-08-25T15:04:19.089Z,15.80
2018-08-25T15:06:48.727Z,15.80
2018-08-25T15:09:18.793Z,15.90
2018-08-25T15:11:49.567Z,15.90
2018-08-25T15:17:30.746Z,15.70
2018-08-25T15:20:00.758Z,15.50
2018-08-25T15:22:44.099Z,15.60
2018-08-25T15:25:28.217Z,15.60
2018-08-25T15:27:58.013Z,15.60
2018-08-25T15:30:27.550Z,15.70
2018-08-25T15:32:57.546Z,15.80
2018-08-25T15:35:26.781Z,15.90
2018-08-25T15:37:57.425Z,15.90
2018-08-25T15:40:29.763Z,16.00
2018-08-25T15:43:00.750Z,16.00
2018-08-25T15:45:32.999Z,16.10
2018-08-25T15:48:02.460Z,16.10
2018-08-25T15:50:31.883Z,16.20
2018-08-25T15:53:03.854Z,16.30
2018-08-25T15:55:40.659Z,16.40
2018-08-25T15:58:14.130Z,16.30
2018-08-25T16:00:57.051Z,16.20
2018-08-25T16:03:27.460Z,16.20
2018-08-25T16:06:02.634Z,16.30
2018-08-25T16:08:43.389Z,16.40
2018-08-25T16:11:16.525Z,16.30
2018-08-25T16:13:58.461Z,16.40
2018-08-25T16:16:36.789Z,16.50
2018-08-25T16:19:06.330Z,16.60
2018-08-25T16:21:38.024Z,16.70
2018-08-25T16:24:08.669Z,16.80
2018-08-25T16:29:21.615Z,17.40
2018-08-25T16:31:58.136Z,17.50
2018-08-25T16:34:27.705Z,17.50
2018-08-25T16:36:57.727Z,17.60
2018-08-25T16:39:27.325Z,17.60
2018-08-25T16:41:57.677Z,17.50
2018-08-25T16:44:27.351Z,17.60
2018-08-25T16:46:57.253Z,17.70
2018-08-25T16:49:27.582Z,17.70
2018-08-25T16:51:57.003Z,17.70
2018-08-25T16:54:27.645Z,17.50
2018-08-25T16:56:57.971Z,17.40
2018-08-25T16:59:27.921Z,17.40
2018-08-25T17:01:57.559Z,17.60
2018-08-25T17:04:27.310Z,17.60
2018-08-25T17:06:56.895Z,17.50
2018-08-25T17:09:26.423Z,17.50
2018-08-25T17:12:14.664Z,17.40
2018-08-25T17:14:44.436Z,17.40
2018-08-25T17:17:14.273Z,17.50
2018-08-25T17:19:44.303Z,17.60
2018-08-25T17:22:13.705Z,17.70
2018-08-25T17:24:44.880Z,17.50
2018-08-25T17:27:20.181Z,17.40
2018-08-25T17:29:51.399Z,17.30
2018-08-25T17:33:27.360Z,17.30
2018-08-25T17:35:56.848Z,17.40
2018-08-25T17:38:26.617Z,17.50
2018-08-25T17:40:56.631Z,17.60
2018-08-25T17:43:26.094Z,17.40
2018-08-25T17:45:55.532Z,17.30
2018-08-25T17:48:24.994Z,17.10
2018-08-25T17:50:54.789Z,17.10
2018-08-25T17:54:31.363Z,17.20
2018-08-25T17:57:01.519Z,17.40
2018-08-25T17:59:31.866Z,17.60
2018-08-25T18:02:02.620Z,17.50
2018-08-25T18:04:33.657Z,17.20
2018-08-25T18:07:03.847Z,16.90
2018-08-25T18:09:33.795Z,16.70
2018-08-25T18:12:03.322Z,16.50
2018-08-25T18:15:06.202Z,16.50
2018-08-25T18:17:35.786Z,16.50
2018-08-25T18:20:05.478Z,16.50
2018-08-25T18:22:34.968Z,16.60
2018-08-25T18:25:05.213Z,16.60
2018-08-25T18:27:34.952Z,16.60
2018-08-25T18:30:04.627Z,16.60
2018-08-25T18:32:34.831Z,16.60
2018-08-25T18:35:05.506Z,16.60
2018-08-25T18:37:39.033Z,16.70
2018-08-25T18:40:12.004Z,16.70
2018-08-25T18:42:44.971Z,16.60
2018-08-25T18:45:18.710Z,16.60
2018-08-25T18:47:51.154Z,16.60
2018-08-25T18:50:26.945Z,16.70
2018-08-25T18:52:59.539Z,16.60
2018-08-25T18:55:31.670Z,16.40
2018-08-25T18:58:03.938Z,16.10
2018-08-25T19:00:37.204Z,16.10
2018-08-25T19:03:08.008Z,16.20
2018-08-25T19:05:38.287Z,16.40
2018-08-25T19:08:08.057Z,16.50
2018-08-25T19:10:38.963Z,16.60
2018-08-25T19:13:08.719Z,16.70
2018-08-25T19:15:39.161Z,16.80
2018-08-25T19:18:09.127Z,16.90
2018-08-25T19:20:38.792Z,17.00
2018-08-25T19:23:08.944Z,17.10
2018-08-25T19:25:39.197Z,17.30
2018-08-25T19:28:12.460Z,17.40
2018-08-25T19:30:48.519Z,17.60
2018-08-25T19:36:10.039Z,17.90
2018-08-25T19:38:39.314Z,18.00
2018-08-25T19:41:09.971Z,18.00
2018-08-25T19:43:39.923Z,18.10
2018-08-25T19:46:09.502Z,18.10
2018-08-25T19:48:39.507Z,18.10
2018-08-25T19:51:10.120Z,18.10
2018-08-25T19:53:39.629Z,18.20
2018-08-25T19:56:09.035Z,18.20
2018-08-25T19:58:38.642Z,18.20
2018-08-25T20:01:08.218Z,18.10
2018-08-25T20:03:37.649Z,18.10
2018-08-25T20:06:07.309Z,18.10
2018-08-25T20:08:36.684Z,18.10
2018-08-25T20:11:06.189Z,18.20
2018-08-25T20:13:35.892Z,18.20
2018-08-25T20:16:05.709Z,18.20
2018-08-25T20:18:36.967Z,18.20
2018-08-25T20:21:06.514Z,18.20
2018-08-25T20:23:35.982Z,18.20
2018-08-25T20:26:05.876Z,18.10
2018-08-25T20:28:35.373Z,18.00
2018-08-25T20:31:04.988Z,17.70
2018-08-25T20:33:34.808Z,17.50
2018-08-25T20:36:04.278Z,17.40
2018-08-25T20:38:33.706Z,17.30
2018-08-25T20:41:04.490Z,17.30
2018-08-25T20:43:33.932Z,17.30
2018-08-25T20:46:04.377Z,17.10
2018-08-25T20:48:34.134Z,17.00
2018-08-25T20:51:08.958Z,17.00
2018-08-25T20:53:39.577Z,16.80
2018-08-25T20:56:09.180Z,16.80
2018-08-25T20:58:38.839Z,16.80
2018-08-25T21:01:08.824Z,16.70
2018-08-25T21:03:40.667Z,16.50
2018-08-25T21:06:14.052Z,16.60
2018-08-25T21:08:43.541Z,16.70
2018-08-25T21:11:13.194Z,16.60
2018-08-25T21:13:42.840Z,16.50
2018-08-25T21:16:12.207Z,16.50
2018-08-25T21:18:43.995Z,16.70
2018-08-25T21:21:13.982Z,16.90
2018-08-25T21:23:43.240Z,17.00
2018-08-25T21:28:47.686Z,17.10
2018-08-25T21:31:17.636Z,17.20
2018-08-25T21:33:47.625Z,17.30
2018-08-25T21:36:21.658Z,17.40
2018-08-25T21:38:51.424Z,17.30
2018-08-25T21:41:20.958Z,17.30
2018-08-25T21:43:52.320Z,17.30
2018-08-25T21:46:21.759Z,17.40
2018-08-25T21:48:54.369Z,17.30
2018-08-25T21:51:24.419Z,17.30
2018-08-25T21:53:54.072Z,17.10
2018-08-25T21:56:26.657Z,16.70
2018-08-25T21:58:56.107Z,16.50
2018-08-25T22:01:25.905Z,16.40
2018-08-25T22:03:55.640Z,16.40
2018-08-25T22:06:28.074Z,16.50
2018-08-25T22:08:58.548Z,16.60
2018-08-25T22:11:28.871Z,16.70
2018-08-25T22:13:59.752Z,16.80
2018-08-25T22:16:30.034Z,16.80
2018-08-25T22:18:59.505Z,16.80
2018-08-25T22:21:35.796Z,16.80
2018-08-25T22:24:26.090Z,16.80
2018-08-25T22:26:55.874Z,16.70
2018-08-25T22:29:25.490Z,16.30
2018-08-25T22:31:55.181Z,16.00
2018-08-25T22:34:24.965Z,16.20
2018-08-25T22:36:57.080Z,16.30
2018-08-25T22:39:27.151Z,16.40
2018-08-25T22:44:33.896Z,16.40
2018-08-25T22:47:04.372Z,16.20
2018-08-25T22:49:33.605Z,16.30
2018-08-25T22:52:02.997Z,16.40
2018-08-25T22:54:32.295Z,16.60
2018-08-25T22:57:07.215Z,16.80
2018-08-25T22:59:36.955Z,16.90
2018-08-25T23:02:18.348Z,17.00
2018-08-25T23:05:03.321Z,17.10
2018-08-25T23:07:36.554Z,17.20
2018-08-25T23:10:06.306Z,17.30
2018-08-25T23:12:35.971Z,17.30
2018-08-25T23:15:05.678Z,17.40
2018-08-25T23:17:35.826Z,17.40
2018-08-25T23:20:06.950Z,17.50
2018-08-25T23:22:36.129Z,17.50
2018-08-25T23:25:05.669Z,17.50
2018-08-25T23:27:35.148Z,17.50
2018-08-25T23:30:04.959Z,17.20
2018-08-25T23:32:35.607Z,17.10
2018-08-25T23:35:09.920Z,17.10
2018-08-25T23:37:49.995Z,17.20
2018-08-25T23:40:33.864Z,17.20
2018-08-25T23:43:07.432Z,17.30
2018-08-25T23:45:36.911Z,17.40
2018-08-25T23:48:06.327Z,17.40
2018-08-25T23:50:35.843Z,17.40
2018-08-25T23:53:05.339Z,17.40
2018-08-25T23:55:35.294Z,17.40
2018-08-25T23:58:04.711Z,17.50
